首页
METAR-TAF:

METAR-TAF

机场 :

Hammond Northshore Regional Airport

哈蒙德, 路易斯安那州, 美国

纬度: 30-31-15N, 经度: 090-25-03W, 海拔: 13米

当前天气观测

该预报发布于16分钟前的22:15 UTC
风速8节,风向东北,有时为16节阵风,在北转东北之间变化
温度 12°C
湿度 44%
气压 1029 hPa
能見度: 16.1公里
天空无云

METAR: KHDC 112215Z AUTO 05008G16KT 020V080 10SM CLR 12/00 A3040 RMK AO2

时间: 16:31 (22:31 UTC)

预报

该预报发布于5小时和11分钟前的17:20 UTC
预报有效从11日的 18点(UTC)到 12日的 18点(UTC)
风速12节,风向北转东北,有时为22节阵风
能見度: 10公里
散云层高于8000英尺
从 12日的 0000点(UTC)
风速6节,风向东北
能見度: 10公里
少量云层高于25000英尺
从 12日的 1400点(UTC)
风速5节,风向东转东北
能見度: 10公里
多云层高于7000英尺
从 12日的 1700点(UTC)
风速6节,风向东转东北
能見度: 10公里
多云层高于3000英尺

TAF: KHDC 111720Z 1118/1218 03012G22KT P6SM SCT080 FM120000 04006KT P6SM FEW250 FM121400 07005KT P6SM BKN070 FM121700 07006KT P6SM BKN030

超过4000个机场的气象观测和天气预报(METAR&TAF报告)。

可查询的气象台以黄色和红色小点在地图上表示。

将鼠标移到小点上方,可查看气象台名称。

然后点击查看天气观测和预报。

如需切换地图:点击带黑十字的绿色按钮放大地图;点击带横线的绿色按钮缩小地图;或者点击绿色箭头查看邻近地区的地图。


METAR-TAF: